Friday, August 22, 2014
09:57 UTC
  |  Log In   |  Register Free
Airport Search:

Firelands Community Hospital Nr 2 Airport
(OI87)

Firelands Community Hospital Nr 2 Airport Diagram
No Airport Diagram Available

FAA data valid effective July 24, 2014 until September 18, 2014 (unless otherwise noted).

 
 
 
 
 
 
 
 
 
 
 
 
 
 

Current Aviation Weather for Firelands Community Hospital Nr 2 Airport (OI87)

The most recent METAR observation for KLPR was updated at: 1819 UTC
METAR Summary (Translated METAR)
KLPR
281819Z AUTO 35015G27KT 10SM BKN029 BKN039 21/13 A2990 RMK AO2 PK WND 35028/1800 T02060128 TSNO
KCLE
(15.3 nm NE from KLPR)
281751Z 33016G30KT 10SM SCT024 BKN029 OVC055 19/13 A2989 RMK AO2 PK WND 33031/1736 SLP117 T01890133 10194 20178 51021
TAF Summary (Translated TAF)
KCLE
(15.3 nm NE from KLPR)
220853Z 2209/2312 VRB03KT P6SM SCT015 OVC025 TEMPO 2209/2213 4SM BR SCT008 OVC015 FM221900 01008KT P6SM SCT035 BKN100 FM230500 12004KT P6SM BKN150
  Airport Weather Conditions for OI87

Current weather conditions are
not available for OI87


The nearest NOAA weather station
is at LPR, (24.8 nm SE from OI87)
  
 Current Weather at LPR
72° F
Mostly Cloudy
South winds at 3.5 mph
LPR NOAA Radar

Pressure: 29.97 in
Humidity: 84%
Wind: South at 3.5 MPH (3 KT)
Dew Point: 66.9°F
Visibility: 10.00 mi


Airport Weather Forecast for OI87

Translated METAR and TAF for KLPR
Translated METAR for KLPR (0950 UTC 22 August 2014)
found at http://aviationweather.gov/adds/metars/
 
METAR text: KLPR 220853Z AUTO 20004KT 10SM FEW019 SCT023 BKN036 22/19 A2996 RMK AO2 SLP140 60000 T02220194 56014 TSNO
Conditions at: KLPR (LORAIN/ELYRIA , OH, US) observed 0853 UTC 22 August 2014
Temperature: 22.2°C (72°F)
Dewpoint: 19.4°C (67°F) [RH = 84%]
Pressure (altimeter): 29.96 inches Hg (1014.6 mb)
[Sea-level pressure: 1014.0 mb]
Winds: from the SSW (200 degrees) at 5 MPH (4 knots; 2.1 m/s)
Visibility: 10 or more miles (16+ km)
Ceiling: 3600 feet AGL
Clouds: few clouds at 1900 feet AGL
scattered clouds at 2300 feet AGL
broken clouds at 3600 feet AGL
Weather: automated observation with no human augmentation;
there may or may not be significant weather present at this time
Translated TAF for KLPR

There is no translated TAF available for this airport

Find All Airport Services Find A Hotel Find A Rental Car Find A Golf Course Find A Restaurant $100 Hamburger



FBO's on the Field
FBO Company Facility Photos Services Transportation Aviation Fuel Prices: Prices include tax
Catering Weather Repair Courtesy Rental Type 100LL JetA JetA+ MOGAS 8087
 
Add another FBO Facility Photos Catering Weather Repair Courtesy Rental Type 100LL JetA JetA+ MOGAS 8087
Services Transportation Aviation Fuel Prices: Prices include tax
There are no FBO's currently reporting fuel at OI87. List your FBO now


GlobalAir.com Airport Resource Center model-print
model-print
model-print
model-print